SondeTracker

Meteorological Radiosondes Database

Operations

Sounding was ended - last measurement: 2022-12-06 14:07:28z

MAP
About Radiosonde

Number: U2451258

Launch Site: Boise [ID] (US)

Type: RS41-NG

AUX: NO

Frequency: 404.800 MHz

Max Speed: 154 km/h at 31429 m

Average Speed: 53.98 km/h

Max Altitude: 31776 m

Average Ascent Speed: 4.90 m/s

Average Descent Speed: 6.39 m/s

Status: UNKNOWN

Status Changes
Launch Site Type AUX Frequency Status Finder Landing Point Description Changes made by
APRS Statistics

Received Frames: 125

First Frame [UTC]: 2022-12-06 11:26:42z

Last Frame [UTC]: 2022-12-06 14:07:28z

Receivers: N7ZDX-2

Flight Time: 02:40:46 h

Distance From First Measurement: 119.49 km

Nearest City: Jerome [ID] (US) [45.33 km]

Nearest Hunter: N7ZDX [56.98 km]

Ground Altitude: 1031 m

Distance from QTH: 0.00 km

APRS Data
Receiver Number Date/Time [UTC] φ λ Course [°] Speed [km/h] Altitude [m] Description
N7ZDX-2U24512582022-12-06 14:07:2843.0018-114.91628771213Clb=-1.9m/s t=-4.6C h=100.0% p=-1.0hPa 404.800 MHz Type=RS41-NG ser=U2451258 Radiosonde
N7ZDX-2U24512582022-12-06 14:06:2743.0019-114.91518041319Clb=-1.7m/s t=-5.0C h=99.0% p=-1.0hPa 404.800 MHz Type=RS41-NG ser=U2451258 Radiosonde
N7ZDX-2U24512582022-12-06 14:05:2643.0026-114.91781191436Clb=-2.1m/s t=-1.2C h=72.6% p=-1.0hPa 404.800 MHz Type=RS41-NG ser=U2451258 Radiosonde
N7ZDX-2U24512582022-12-06 14:04:2443.0026-114.92186201562Clb=-2.0m/s t=-1.5C h=71.0% p=-1.0hPa 404.800 MHz Type=RS41-NG ser=U2451258 Radiosonde
N7ZDX-2U24512582022-12-06 14:03:2443.0037-114.926115241678Clb=-1.7m/s t=-1.3C h=65.5% p=-1.0hPa 404.800 MHz Type=RS41-NG ser=U2451258 Radiosonde
N7ZDX-2U24512582022-12-06 14:02:2243.0053-114.929139221796Clb=-2.0m/s t=-2.5C h=69.4% p=-1.0hPa 404.800 MHz Type=RS41-NG ser=U2451258 Radiosonde
N7ZDX-2U24512582022-12-06 14:01:2143.0074-114.933133191910Clb=-1.8m/s t=-3.6C h=71.0% p=-1.0hPa 404.800 MHz Type=RS41-NG ser=U2451258 Radiosonde
N7ZDX-2U24512582022-12-06 14:00:2543.0102-114.937130262024Clb=-2.2m/s t=-4.8C h=72.9% p=-1.0hPa 404.800 MHz Type=RS41-NG ser=U2451258 Radiosonde
N7ZDX-2U24512582022-12-06 13:59:1943.0128-114.941130262152Clb=-2.2m/s t=-6.0C h=77.5% p=-1.0hPa 404.800 MHz Type=RS41-NG ser=U2451258 Radiosonde
N7ZDX-2U24512582022-12-06 13:58:1843.0148-114.945126262281Clb=-2.3m/s t=-7.0C h=81.6% p=-1.0hPa 404.800 MHz Type=RS41-NG ser=U2451258 Radiosonde
N7ZDX-2U24512582022-12-06 13:57:1743.0163-114.9592242407Clb=-2.0m/s t=-7.8C h=82.0% p=-1.0hPa 404.800 MHz Type=RS41-NG ser=U2451258 Radiosonde
N7ZDX-2U24512582022-12-06 13:56:1643.0168-114.954101152532Clb=-2.7m/s t=-8.8C h=85.6% p=-1.0hPa 404.800 MHz Type=RS41-NG ser=U2451258 Radiosonde
N7ZDX-2U24512582022-12-06 13:55:1543.0172-114.95999202668Clb=-2.2m/s t=-10.0C h=95.3% p=-1.0hPa 404.800 MHz Type=RS41-NG ser=U2451258 Radiosonde
N7ZDX-2U24512582022-12-06 13:54:1443.0174-114.965103282820Clb=-2.3m/s t=-11.1C h=100.0% p=-1.0hPa 404.800 MHz Type=RS41-NG ser=U2451258 Radiosonde
N7ZDX-2U24512582022-12-06 13:53:1343.0171-114.97167372949Clb=-2.5m/s t=-12.0C h=100.0% p=-1.0hPa 404.800 MHz Type=RS41-NG ser=U2451258 Radiosonde
N7ZDX-2U24512582022-12-06 13:52:1243.0167-114.97788203106Clb=-2.6m/s t=-13.3C h=100.0% p=-1.0hPa 404.800 MHz Type=RS41-NG ser=U2451258 Radiosonde
N7ZDX-2U24512582022-12-06 13:51:1143.0161-114.98382263279Clb=-2.9m/s t=-14.6C h=100.0% p=-1.0hPa 404.800 MHz Type=RS41-NG ser=U2451258 Radiosonde
N7ZDX-2U24512582022-12-06 13:50:1043.0152-114.9981303440Clb=-2.5m/s t=-14.6C h=71.2% p=-1.0hPa 404.800 MHz Type=RS41-NG ser=U2451258 Radiosonde
N7ZDX-2U24512582022-12-06 13:49:0943.0149-114.99589263589Clb=-2.4m/s t=-13.5C h=32.0% p=-1.0hPa 404.800 MHz Type=RS41-NG ser=U2451258 Radiosonde
N7ZDX-2U24512582022-12-06 13:48:0843.0149-11589193748Clb=-2.4m/s t=-14.6C h=39.4% p=-1.0hPa 404.800 MHz Type=RS41-NG ser=U2451258 Radiosonde
N7ZDX-2U24512582022-12-06 13:47:0743.0151-115.00486193911Clb=-2.5m/s t=-15.8C h=45.9% p=-1.0hPa 404.800 MHz Type=RS41-NG ser=U2451258 Radiosonde
N7ZDX-2U24512582022-12-06 13:46:0643.0155-115.007118134077Clb=-2.8m/s t=-16.9C h=22.4% p=-1.0hPa 404.800 MHz Type=RS41-NG ser=U2451258 Radiosonde
N7ZDX-2U24512582022-12-06 13:45:0543.0166-115.01106154247Clb=-2.5m/s t=-18.3C h=23.3% p=-1.0hPa 404.800 MHz Type=RS41-NG ser=U2451258 Radiosonde
N7ZDX-2U24512582022-12-06 13:44:0343.0174-115.013109174405Clb=-2.4m/s t=-19.4C h=22.5% p=-1.0hPa 404.800 MHz Type=RS41-NG ser=U2451258 Radiosonde
N7ZDX-2U24512582022-12-06 13:43:0243.0187-115.017108194562Clb=-2.6m/s t=-20.2C h=26.1% p=-1.0hPa 404.800 MHz Type=RS41-NG ser=U2451258 Radiosonde
N7ZDX-2U24512582022-12-06 13:42:0243.0199-115.021109204727Clb=-2.7m/s t=-21.4C h=18.1% p=-1.0hPa 404.800 MHz Type=RS41-NG ser=U2451258 Radiosonde
N7ZDX-2U24512582022-12-06 13:41:0043.021-115.024117114908Clb=-3.2m/s t=-22.7C h=20.1% p=-1.0hPa 404.800 MHz Type=RS41-NG ser=U2451258 Radiosonde
N7ZDX-2U24512582022-12-06 13:39:5943.0221-115.02612595100Clb=-3.0m/s t=-24.4C h=26.4% p=-1.0hPa 404.800 MHz Type=RS41-NG ser=U2451258 Radiosonde
N7ZDX-2U24512582022-12-06 13:38:5843.0231-115.02717075314Clb=-3.3m/s t=-25.9C h=25.6% p=-1.0hPa 404.800 MHz Type=RS41-NG ser=U2451258 Radiosonde
N7ZDX-2U24512582022-12-06 13:37:5743.0247-115.026217175513Clb=-3.2m/s t=-26.5C h=37.8% p=-1.0hPa 404.800 MHz Type=RS41-NG ser=U2451258 Radiosonde
N7ZDX-2U24512582022-12-06 13:36:5643.0267-115.023219195721Clb=-3.5m/s t=-27.5C h=35.0% p=-1.0hPa 404.800 MHz Type=RS41-NG ser=U2451258 Radiosonde
N7ZDX-2U24512582022-12-06 13:35:5543.0298-115.019230335937Clb=-3.8m/s t=-28.8C h=27.5% p=-1.0hPa 404.800 MHz Type=RS41-NG ser=U2451258 Radiosonde
N7ZDX-2U24512582022-12-06 13:34:5443.0336-115.013219376162Clb=-3.6m/s t=-30.9C h=35.8% p=-1.0hPa 404.800 MHz Type=RS41-NG ser=U2451258 Radiosonde
N7ZDX-2U24512582022-12-06 13:33:5343.0383-115.008218376386Clb=-3.8m/s t=-32.4C h=36.0% p=-1.0hPa 404.800 MHz Type=RS41-NG ser=U2451258 Radiosonde
N7ZDX-2U24512582022-12-06 13:32:5243.0433-115.003210436612Clb=-3.9m/s t=-34.2C h=36.4% p=-1.0hPa 404.800 MHz Type=RS41-NG ser=U2451258 Radiosonde
N7ZDX-2U24512582022-12-06 13:31:5143.0494-114.999208466840Clb=-4.0m/s t=-35.5C h=23.5% p=-1.0hPa 404.800 MHz Type=RS41-NG ser=U2451258 Radiosonde
N7ZDX-2U24512582022-12-06 13:30:5043.0554-114.994210417074Clb=-4.1m/s t=-37.2C h=21.8% p=-1.0hPa 404.800 MHz Type=RS41-NG ser=U2451258 Radiosonde
N7ZDX-2U24512582022-12-06 13:29:4943.0609-114.989215437321Clb=-4.4m/s t=-39.4C h=24.3% p=-1.0hPa 404.800 MHz Type=RS41-NG ser=U2451258 Radiosonde
N7ZDX-2U24512582022-12-06 13:28:4843.0663-114.984215437555Clb=-3.5m/s t=-41.5C h=24.5% p=-1.0hPa 404.800 MHz Type=RS41-NG ser=U2451258 Radiosonde
N7ZDX-2U24512582022-12-06 13:27:4743.072-114.979212467812Clb=-4.6m/s t=-43.7C h=25.5% p=-1.0hPa 404.800 MHz Type=RS41-NG ser=U2451258 Radiosonde
N7ZDX-2U24512582022-12-06 13:26:4643.0778-114.973212468084Clb=-4.3m/s t=-45.5C h=23.2% p=-1.0hPa 404.800 MHz Type=RS41-NG ser=U2451258 Radiosonde
N7ZDX-2U24512582022-12-06 13:25:4643.082-114.968227268345Clb=-4.2m/s t=-47.1C h=20.9% p=-1.0hPa 404.800 MHz Type=RS41-NG ser=U2451258 Radiosonde
N7ZDX-2U24512582022-12-06 13:24:4443.0891-114.963194318808Clb=-4.2m/s t=-49.8C h=29.3% p=-1.0hPa 404.800 MHz Type=RS41-NG ser=U2451258 Radiosonde
N7ZDX-2U24512582022-12-06 13:23:4343.091-114.963187448901Clb=-4.6m/s t=-50.3C h=27.6% p=-1.0hPa 404.800 MHz Type=RS41-NG ser=U2451258 Radiosonde
N7ZDX-2U24512582022-12-06 13:23:0643.1271-115.07929113466Clb=-6.6m/s t=-55.5C h=1.8% p=-1.0hPa 404.800 MHz Type=RS41-NG ser=U2451258 Radiosonde
N7ZDX-2U24512582022-12-06 13:21:4743.1272-115.09878513875Clb=-7.3m/s t=-55.9C h=1.8% p=-1.0hPa 404.800 MHz Type=RS41-NG ser=U2451258 Radiosonde
N7ZDX-2U24512582022-12-06 13:20:3243.1266-115.107858114308Clb=-7.7m/s t=-58.0C h=1.9% p=-1.0hPa 404.800 MHz Type=RS41-NG ser=U2451258 Radiosonde
N7ZDX-2U24512582022-12-06 13:19:0343.1265-115.125968714757Clb=-8.0m/s t=-58.1C h=1.8% p=-1.0hPa 404.800 MHz Type=RS41-NG ser=U2451258 Radiosonde
N7ZDX-2U24512582022-12-06 13:17:4443.1291-115.1421048015225Clb=-8.4m/s t=-58.0C h=1.7% p=-1.0hPa 404.800 MHz Type=RS41-NG ser=U2451258 Radiosonde
N7ZDX-2U24512582022-12-06 13:16:2043.1326-115.1591108715700Clb=-8.4m/s t=-57.6C h=1.6% p=-1.0hPa 404.800 MHz Type=RS41-NG ser=U2451258 Radiosonde
N7ZDX-2U24512582022-12-06 13:14:5843.1358-115.176946916190Clb=-8.1m/s t=-57.5C h=1.5% p=-1.0hPa 404.800 MHz Type=RS41-NG ser=U2451258 Radiosonde
N7ZDX-2U24512582022-12-06 13:13:3843.1371-115.1921047816712Clb=-9.5m/s t=-57.1C h=1.5% p=-1.0hPa 404.800 MHz Type=RS41-NG ser=U2451258 Radiosonde
N7ZDX-2U24512582022-12-06 13:12:1043.1375-115.209888917253Clb=-8.7m/s t=-59.5C h=1.7% p=-1.0hPa 404.800 MHz Type=RS41-NG ser=U2451258 Radiosonde
N7ZDX-2U24512582022-12-06 13:11:5143.1394-115.2271078717802Clb=-9.3m/s t=-60.2C h=1.7% p=-1.0hPa 404.800 MHz Type=RS41-NG ser=U2451258 Radiosonde
N7ZDX-2U24512582022-12-06 13:11:3843.1434-115.2431077018384Clb=-9.9m/s t=-61.6C h=1.8% p=-1.0hPa 404.800 MHz Type=RS41-NG ser=U2451258 Radiosonde
N7ZDX-2U24512582022-12-06 13:11:2543.1462-115.256965618988Clb=-10.2m/s t=-61.6C h=1.7% p=-1.0hPa 404.800 MHz Type=RS41-NG ser=U2451258 Radiosonde
N7ZDX-2U24512582022-12-06 13:09:5943.1454-115.272929619630Clb=-10.5m/s t=-62.4C h=1.7% p=-1.0hPa 404.800 MHz Type=RS41-NG ser=U2451258 Radiosonde
N7ZDX-2U24512582022-12-06 13:08:1243.1514-115.2871266920308Clb=-11.7m/s t=-58.9C h=1.3% p=-1.0hPa 404.800 MHz Type=RS41-NG ser=U2451258 Radiosonde
N7ZDX-2U24512582022-12-06 13:06:2643.1585-115.2981217421067Clb=-13.4m/s t=-56.1C h=1.0% p=-1.0hPa 404.800 MHz Type=RS41-NG ser=U2451258 Radiosonde
N7ZDX-2U24512582022-12-06 13:04:5343.165-115.3091376121883Clb=-13.6m/s t=-58.5C h=1.2% p=-1.0hPa 404.800 MHz Type=RS41-NG ser=U2451258 Radiosonde
N7ZDX-2U24512582022-12-06 13:03:0943.1694-115.3181306122752Clb=-15.1m/s t=-58.3C h=1.1% p=-1.0hPa 404.800 MHz Type=RS41-NG ser=U2451258 Radiosonde
N7ZDX-2U24512582022-12-06 13:01:3843.1758-115.3251104423696Clb=-16.5m/s t=-55.3C h=0.9% p=-1.0hPa 404.800 MHz Type=RS41-NG ser=U2451258 Radiosonde
N7ZDX-2U24512582022-12-06 12:59:4043.1801-115.3361356924725Clb=-18.0m/s t=-59.8C h=1.2% p=-1.0hPa 404.800 MHz Type=RS41-NG ser=U2451258 Radiosonde
N7ZDX-2U24512582022-12-06 12:57:3243.1859-115.3441325225848Clb=-18.8m/s t=-59.7C h=1.1% p=-1.0hPa 404.800 MHz Type=RS41-NG ser=U2451258 Radiosonde
N7ZDX-2U24512582022-12-06 12:55:4443.191-115.3521297026979Clb=-19.4m/s t=-61.3C h=1.5% p=-1.0hPa 404.800 MHz Type=RS41-NG ser=U2451258 Radiosonde
N7ZDX-2U24512582022-12-06 12:53:5443.1968-115.3611316728234Clb=-21.5m/s t=-59.7C h=1.2% p=-1.0hPa 404.800 MHz Type=RS41-NG ser=U2451258 Radiosonde
N7ZDX-2U24512582022-12-06 12:51:5443.2014-115.371146529655Clb=-25.4m/s t=-60.2C h=1.3% p=-1.0hPa 404.800 MHz Type=RS41-NG ser=U2451258 Radiosonde
N7ZDX-2U24512582022-12-06 12:49:5543.2038-115.38510613331197Clb=-25.3m/s t=-58.0C h=1.1% p=-1.0hPa 404.800 MHz Type=RS41-NG ser=U2451258 Radiosonde
N7ZDX-2U24512582022-12-06 12:47:4843.208-115.403845631776Clb=0.1m/s t=-59.4C h=1.2% p=-1.0hPa 404.800 MHz Type=RS41-NG ser=U2451258 Radiosonde
N7ZDX-2U24512582022-12-06 12:45:5143.2127-115.42311215431429Clb=10.0m/s t=-58.9C h=1.2% p=-1.0hPa 404.800 MHz Type=RS41-NG ser=U2451258 Radiosonde
N7ZDX-2U24512582022-12-06 12:43:5943.2154-115.4439012431078Clb=4.0m/s t=-57.6C h=1.2% p=-1.0hPa 404.800 MHz Type=RS41-NG ser=U2451258 Radiosonde
N7ZDX-2U24512582022-12-06 12:43:4943.2178-115.4618412630714Clb=5.6m/s t=-58.1C h=1.1% p=-1.0hPa 404.800 MHz Type=RS41-NG ser=U2451258 Radiosonde
N7ZDX-2U24512582022-12-06 12:43:2343.2198-115.4761239330340Clb=9.0m/s t=-58.7C h=1.3% p=-1.0hPa 404.800 MHz Type=RS41-NG ser=U2451258 Radiosonde
N7ZDX-2U24512582022-12-06 12:42:0443.2226-115.4851036929940Clb=9.2m/s t=-59.5C h=1.4% p=-1.0hPa 404.800 MHz Type=RS41-NG ser=U2451258 Radiosonde
N7ZDX-2U24512582022-12-06 12:41:5343.2271-115.49610010429531Clb=4.6m/s t=-59.4C h=1.5% p=-1.0hPa 404.800 MHz Type=RS41-NG ser=U2451258 Radiosonde
N7ZDX-2U24512582022-12-06 12:41:4843.2337-115.505887429137Clb=6.1m/s t=-60.0C h=1.4% p=-1.0hPa 404.800 MHz Type=RS41-NG ser=U2451258 Radiosonde
N7ZDX-2U24512582022-12-06 12:41:3343.2374-115.5151712028758Clb=9.0m/s t=-60.8C h=1.5% p=-1.0hPa 404.800 MHz Type=RS41-NG ser=U2451258 Radiosonde
N7ZDX-2U24512582022-12-06 12:39:5943.2439-115.5241156728358Clb=2.1m/s t=-60.1C h=1.4% p=-1.0hPa 404.800 MHz Type=RS41-NG ser=U2451258 Radiosonde
N7ZDX-2U24512582022-12-06 12:37:4443.2489-115.5341696927977Clb=-0.7m/s t=-58.9C h=1.3% p=-1.0hPa 404.800 MHz Type=RS41-NG ser=U2451258 Radiosonde
N7ZDX-2U24512582022-12-06 12:35:2443.2527-115.5431298727620Clb=-1.4m/s t=-58.2C h=1.4% p=-1.0hPa 404.800 MHz Type=RS41-NG ser=U2451258 Radiosonde
N7ZDX-2U24512582022-12-06 12:32:2343.3122-115.6381634423666Clb=5.3m/s t=-56.7C h=1.5% p=-1.0hPa 404.800 MHz Type=RS41-NG ser=U2451258 Radiosonde
N7ZDX-2U24512582022-12-06 12:30:0643.318-115.6431645223310Clb=4.5m/s t=-57.6C h=2.0% p=-1.0hPa 404.800 MHz Type=RS41-NG ser=U2451258 Radiosonde
N7ZDX-2U24512582022-12-06 12:27:3943.3243-115.651648022979Clb=3.3m/s t=-57.8C h=2.0% p=-1.0hPa 404.800 MHz Type=RS41-NG ser=U2451258 Radiosonde
N7ZDX-2U24512582022-12-06 12:25:2943.3305-115.6581526922664Clb=5.1m/s t=-58.0C h=1.9% p=-1.0hPa 404.800 MHz Type=RS41-NG ser=U2451258 Radiosonde
N7ZDX-2U24512582022-12-06 12:23:0243.336-115.671216122340Clb=6.8m/s t=-57.3C h=1.6% p=-1.0hPa 404.800 MHz Type=RS41-NG ser=U2451258 Radiosonde
N7ZDX-2U24512582022-12-06 12:20:2443.3416-115.6791395722017Clb=6.8m/s t=-57.7C h=1.7% p=-1.0hPa 404.800 MHz Type=RS41-NG ser=U2451258 Radiosonde
N7ZDX-2U24512582022-12-06 12:17:2943.3504-115.6881398921689Clb=7.4m/s t=-57.5C h=2.0% p=-1.0hPa 404.800 MHz Type=RS41-NG ser=U2451258 Radiosonde
N7ZDX-2U24512582022-12-06 12:15:5843.3578-115.7011248521363Clb=7.5m/s t=-57.0C h=1.9% p=-1.0hPa 404.800 MHz Type=RS41-NG ser=U2451258 Radiosonde
N7ZDX-2U24512582022-12-06 12:15:5243.365-115.7141198721055Clb=3.8m/s t=-61.8C h=2.3% p=-1.0hPa 404.800 MHz Type=RS41-NG ser=U2451258 Radiosonde
N7ZDX-2U24512582022-12-06 12:15:4643.3709-115.7241306120744Clb=6.2m/s t=-60.2C h=2.2% p=-1.0hPa 404.800 MHz Type=RS41-NG ser=U2451258 Radiosonde
N7ZDX-2U24512582022-12-06 12:15:0143.3769-115.7321125220422Clb=6.4m/s t=-59.8C h=2.2% p=-1.0hPa 404.800 MHz Type=RS41-NG ser=U2451258 Radiosonde
N7ZDX-2U24512582022-12-06 12:12:5743.3812-115.7441256920090Clb=8.1m/s t=-59.8C h=2.2% p=-1.0hPa 404.800 MHz Type=RS41-NG ser=U2451258 Radiosonde
N7ZDX-2U24512582022-12-06 12:10:3443.385-115.758955919743Clb=5.9m/s t=-59.5C h=2.4% p=-1.0hPa 404.800 MHz Type=RS41-NG ser=U2451258 Radiosonde
N7ZDX-2U24512582022-12-06 12:09:2243.4134-115.926967016477Clb=5.4m/s t=-58.3C h=3.0% p=-1.0hPa 404.800 MHz Type=RS41-NG ser=U2451258 Radiosonde
N7ZDX-2U24512582022-12-06 12:06:5143.4149-115.9411026916223Clb=4.7m/s t=-58.4C h=3.0% p=-1.0hPa 404.800 MHz Type=RS41-NG ser=U2451258 Radiosonde
N7ZDX-2U24512582022-12-06 12:04:2143.4172-115.956988315950Clb=5.6m/s t=-58.4C h=3.0% p=-1.0hPa 404.800 MHz Type=RS41-NG ser=U2451258 Radiosonde
N7ZDX-2U24512582022-12-06 12:02:0243.4199-115.9731027415661Clb=4.3m/s t=-57.8C h=3.2% p=-1.0hPa 404.800 MHz Type=RS41-NG ser=U2451258 Radiosonde
N7ZDX-2U24512582022-12-06 11:59:4143.4222-115.991917615363Clb=5.6m/s t=-56.3C h=3.1% p=-1.0hPa 404.800 MHz Type=RS41-NG ser=U2451258 Radiosonde
N7ZDX-2U24512582022-12-06 11:57:0743.4252-116.0081028515091Clb=3.1m/s t=-57.4C h=3.5% p=-1.0hPa 404.800 MHz Type=RS41-NG ser=U2451258 Radiosonde
N7ZDX-2U24512582022-12-06 11:54:5543.4274-116.026938114833Clb=4.0m/s t=-56.6C h=3.1% p=-1.0hPa 404.800 MHz Type=RS41-NG ser=U2451258 Radiosonde
N7ZDX-2U24512582022-12-06 11:52:2343.4276-116.045908714574Clb=5.6m/s t=-56.5C h=3.2% p=-1.0hPa 404.800 MHz Type=RS41-NG ser=U2451258 Radiosonde
N7ZDX-2U24512582022-12-06 11:51:0843.428-116.063898014319Clb=5.1m/s t=-56.1C h=3.2% p=-1.0hPa 404.800 MHz Type=RS41-NG ser=U2451258 Radiosonde
N7ZDX-2U24512582022-12-06 11:50:1143.429-116.08998314049Clb=4.8m/s t=-57.5C h=3.7% p=-1.0hPa 404.800 MHz Type=RS41-NG ser=U2451258 Radiosonde
N7ZDX-2U24512582022-12-06 11:49:4843.4302-116.098908713764Clb=4.8m/s t=-56.6C h=3.4% p=-1.0hPa 404.800 MHz Type=RS41-NG ser=U2451258 Radiosonde
N7ZDX-2U24512582022-12-06 11:48:5843.43-116.117936713431Clb=7.6m/s t=-54.2C h=3.1% p=-1.0hPa 404.800 MHz Type=RS41-NG ser=U2451258 Radiosonde
N7ZDX-2U24512582022-12-06 11:48:4843.4314-116.1351018713119Clb=4.5m/s t=-54.8C h=3.5% p=-1.0hPa 404.800 MHz Type=RS41-NG ser=U2451258 Radiosonde
N7ZDX-2U24512582022-12-06 11:48:4243.4334-116.1521037812844Clb=4.2m/s t=-55.0C h=3.6% p=-1.0hPa 404.800 MHz Type=RS41-NG ser=U2451258 Radiosonde
N7ZDX-2U24512582022-12-06 11:48:3843.4328-116.166966712593Clb=4.5m/s t=-55.8C h=3.9% p=-1.0hPa 404.800 MHz Type=RS41-NG ser=U2451258 Radiosonde
N7ZDX-2U24512582022-12-06 11:47:5343.4334-116.178916712335Clb=4.0m/s t=-56.0C h=4.3% p=-1.0hPa 404.800 MHz Type=RS41-NG ser=U2451258 Radiosonde
N7ZDX-2U24512582022-12-06 11:43:5043.4349-116.2051005011783Clb=3.7m/s t=-57.0C h=5.7% p=-1.0hPa 404.800 MHz Type=RS41-NG ser=U2451258 Radiosonde
N7ZDX-2U24512582022-12-06 11:41:4443.4355-116.2161033711529Clb=8.0m/s t=-55.4C h=5.8% p=-1.0hPa 404.800 MHz Type=RS41-NG ser=U2451258 Radiosonde
N7ZDX-2U24512582022-12-06 11:39:5643.4355-116.225894611284Clb=2.7m/s t=-56.4C h=11.7% p=-1.0hPa 404.800 MHz Type=RS41-NG ser=U2451258 Radiosonde
N7ZDX-2U24512582022-12-06 11:38:5543.4375-116.2311293110982Clb=4.4m/s t=-60.3C h=23.7% p=-1.0hPa 404.800 MHz Type=RS41-NG ser=U2451258 Radiosonde
N7ZDX-2U24512582022-12-06 11:37:5443.4393-116.2351441510754Clb=4.4m/s t=-59.4C h=24.4% p=-1.0hPa 404.800 MHz Type=RS41-NG ser=U2451258 Radiosonde
N7ZDX-2U24512582022-12-06 11:36:5343.4429-116.2361543510488Clb=4.4m/s t=-58.4C h=27.1% p=-1.0hPa 404.800 MHz Type=RS41-NG ser=U2451258 Radiosonde
N7ZDX-2U24512582022-12-06 11:36:2743.4486-116.2381753310240Clb=4.3m/s t=-59.7C h=35.8% p=-1.0hPa 404.800 MHz Type=RS41-NG ser=U2451258 Radiosonde
N7ZDX-2U24512582022-12-06 11:36:2243.4544-116.238179359993Clb=4.2m/s t=-58.4C h=39.0% p=-1.0hPa 404.800 MHz Type=RS41-NG ser=U2451258 Radiosonde
N7ZDX-2U24512582022-12-06 11:35:2143.4602-116.237184379733Clb=4.9m/s t=-56.5C h=33.3% p=-1.0hPa 404.800 MHz Type=RS41-NG ser=U2451258 Radiosonde
N7ZDX-2U24512582022-12-06 11:33:3043.4663-116.236185439460Clb=4.5m/s t=-54.5C h=35.9% p=-1.0hPa 404.800 MHz Type=RS41-NG ser=U2451258 Radiosonde
N7ZDX-2U24512582022-12-06 11:31:4743.4733-116.235187449187Clb=3.9m/s t=-52.6C h=35.5% p=-1.0hPa 404.800 MHz Type=RS41-NG ser=U2451258 Radiosonde
N7ZDX-2U24512582022-12-06 11:31:1243.481-116.233188488925Clb=4.9m/s t=-50.6C h=-1.0% p=-1.0hPa 404.800 MHz Type=RS41-NG ser=U2451258 Radiosonde
N7ZDX-2U24512582022-12-06 11:30:5143.4892-116.23196568651Clb=3.6m/s t=-48.3C h=-1.0% p=-1.0hPa 404.800 MHz Type=RS41-NG ser=U2451258 Radiosonde
N7ZDX-2U24512582022-12-06 11:29:1143.4997-116.224216468248Clb=4.7m/s t=-46.3C h=-1.0% p=-1.0hPa 404.800 MHz Type=RS41-NG ser=U2451258 Radiosonde
N7ZDX-2U24512582022-12-06 11:27:4343.5054-116.22214468028Clb=4.2m/s t=-44.7C h=-1.0% p=-1.0hPa 404.800 MHz Type=RS41-NG ser=U2451258 Radiosonde
N7ZDX-2U24512582022-12-06 11:26:4243.5087-116.217206567910Clb=3.6m/s t=-43.8C h=-1.0% p=-1.0hPa 404.800 MHz Type=RS41-NG ser=U2451258 Radiosonde